createdAt,value
2018-04-02T00:00:52.013Z,1003.97
2018-04-02T00:01:51.995Z,1003.95
2018-04-02T00:02:51.970Z,1004.00
2018-04-02T00:03:51.953Z,1003.92
2018-04-02T00:04:51.926Z,1003.97
2018-04-02T00:05:51.905Z,1004.04
2018-04-02T00:06:51.886Z,1004.04
2018-04-02T00:07:51.860Z,1004.08
2018-04-02T00:08:51.840Z,1004.12
2018-04-02T00:09:51.813Z,1004.08
2018-04-02T00:10:51.790Z,1004.12
2018-04-02T00:11:51.770Z,1004.07
2018-04-02T00:12:51.750Z,1004.12
2018-04-02T00:13:51.731Z,1004.10
2018-04-02T00:14:51.704Z,1004.15
2018-04-02T00:15:51.683Z,1004.08
2018-04-02T00:16:51.660Z,1004.12
2018-04-02T00:17:51.643Z,1004.08
2018-04-02T00:18:51.622Z,1004.08
2018-04-02T00:19:51.596Z,1004.09
2018-04-02T00:20:51.573Z,1004.14
2018-04-02T00:21:51.552Z,1004.14
2018-04-02T00:22:51.529Z,1004.19
2018-04-02T00:23:51.506Z,1004.12
2018-04-02T00:24:51.485Z,1004.19
2018-04-02T00:25:51.461Z,1004.20
2018-04-02T00:26:51.441Z,1004.22
2018-04-02T00:27:51.417Z,1004.25
2018-04-02T00:28:51.394Z,1004.23
2018-04-02T00:29:51.374Z,1004.21
2018-04-02T00:30:51.349Z,1004.24
2018-04-02T00:31:51.328Z,1004.22
2018-04-02T00:32:51.306Z,1004.24
2018-04-02T00:33:51.287Z,1004.18
2018-04-02T00:34:51.310Z,1004.19
2018-04-02T00:35:51.239Z,1004.18
2018-04-02T00:36:51.220Z,1004.20
2018-04-02T00:37:51.197Z,1004.24
2018-04-02T00:38:51.172Z,1004.25
2018-04-02T00:39:51.163Z,1004.19
2018-04-02T00:40:51.128Z,1004.25
2018-04-02T00:41:51.104Z,1004.27
2018-04-02T00:42:51.091Z,1004.23
2018-04-02T00:43:51.062Z,1004.28
2018-04-02T00:44:51.044Z,1004.23
2018-04-02T00:45:51.019Z,1004.23
2018-04-02T00:46:50.993Z,1004.29
2018-04-02T00:47:50.975Z,1004.26
2018-04-02T00:48:50.973Z,1004.30
2018-04-02T00:49:50.925Z,1004.28
2018-04-02T00:50:50.903Z,1004.30
2018-04-02T00:51:50.878Z,1004.28
2018-04-02T00:52:50.863Z,1004.26
2018-04-02T00:53:50.839Z,1004.27
2018-04-02T00:54:50.812Z,1004.31
2018-04-02T00:55:50.792Z,1004.26
2018-04-02T00:56:50.771Z,1004.31
2018-04-02T00:57:50.753Z,1004.32
2018-04-02T00:58:50.729Z,1004.31
2018-04-02T00:59:50.704Z,1004.34
2018-04-02T01:00:50.685Z,1004.32
2018-04-02T01:01:50.658Z,1004.33
2018-04-02T01:02:50.635Z,1004.34
2018-04-02T01:03:50.615Z,1004.30
2018-04-02T01:04:50.593Z,1004.32
2018-04-02T01:05:50.575Z,1004.39
2018-04-02T01:06:50.551Z,1004.40
2018-04-02T01:07:50.522Z,1004.42
2018-04-02T01:08:50.503Z,1004.42
2018-04-02T01:09:50.482Z,1004.46
2018-04-02T01:10:50.458Z,1004.46
2018-04-02T01:11:50.434Z,1004.49
2018-04-02T01:12:50.411Z,1004.45
2018-04-02T01:13:50.393Z,1004.48
2018-04-02T01:14:50.371Z,1004.53
2018-04-02T01:15:50.343Z,1004.50
2018-04-02T01:16:50.373Z,1004.50
2018-04-02T01:17:50.304Z,1004.52
2018-04-02T01:18:50.277Z,1004.48
2018-04-02T01:19:50.256Z,1004.53
2018-04-02T01:20:50.281Z,1004.50
2018-04-02T01:21:50.213Z,1004.56
2018-04-02T01:22:50.288Z,1004.56
2018-04-02T01:23:50.165Z,1004.50
2018-04-02T01:24:50.243Z,1004.53
2018-04-02T01:25:50.137Z,1004.55
2018-04-02T01:26:50.198Z,1004.56
2018-04-02T01:27:50.076Z,1004.53
2018-04-02T01:28:50.160Z,1004.58
2018-04-02T01:29:50.033Z,1004.53
2018-04-02T01:30:50.159Z,1004.55
2018-04-02T01:31:49.997Z,1004.56
2018-04-02T01:32:49.975Z,1004.55
2018-04-02T01:33:49.944Z,1004.55
2018-04-02T01:34:50.065Z,1004.51
2018-04-02T01:35:49.897Z,1004.55
2018-04-02T01:36:49.880Z,1004.61
2018-04-02T01:37:49.853Z,1004.60
2018-04-02T01:38:49.930Z,1004.61
2018-04-02T01:39:49.812Z,1004.58
2018-04-02T01:40:49.932Z,1004.56
2018-04-02T01:41:49.761Z,1004.61
2018-04-02T01:42:49.854Z,1004.62
2018-04-02T01:43:49.712Z,1004.63
2018-04-02T01:44:49.865Z,1004.56
2018-04-02T01:45:49.677Z,1004.59
2018-04-02T01:46:49.652Z,1004.62
2018-04-02T01:47:49.628Z,1004.64
2018-04-02T01:48:49.611Z,1004.66
2018-04-02T01:49:49.579Z,1004.68
2018-04-02T01:50:49.572Z,1004.65
2018-04-02T01:51:49.534Z,1004.60
2018-04-02T01:52:49.514Z,1004.65
2018-04-02T01:53:49.494Z,1004.65
2018-04-02T01:54:49.469Z,1004.70
2018-04-02T01:55:49.547Z,1004.70
2018-04-02T01:56:49.423Z,1004.69
2018-04-02T01:57:49.403Z,1004.63
2018-04-02T01:58:49.380Z,1004.68
2018-04-02T01:59:49.356Z,1004.66
2018-04-02T02:00:49.334Z,1004.69
2018-04-02T02:01:49.317Z,1004.70
2018-04-02T02:02:49.295Z,1004.61
2018-04-02T02:03:49.267Z,1004.65
2018-04-02T02:04:49.243Z,1004.69
2018-04-02T02:05:49.223Z,1004.74
2018-04-02T02:06:49.199Z,1004.70
2018-04-02T02:07:49.175Z,1004.74
2018-04-02T02:08:49.155Z,1004.73
2018-04-02T02:09:49.134Z,1004.74
2018-04-02T02:10:49.110Z,1004.72
2018-04-02T02:11:49.086Z,1004.77
2018-04-02T02:12:49.063Z,1004.74
2018-04-02T02:13:49.040Z,1004.76
2018-04-02T02:14:49.016Z,1004.75
2018-04-02T02:15:48.995Z,1004.76
2018-04-02T02:16:48.972Z,1004.67
2018-04-02T02:17:48.955Z,1004.75
2018-04-02T02:18:48.931Z,1004.73
2018-04-02T02:19:48.906Z,1004.76
2018-04-02T02:20:48.880Z,1004.77
2018-04-02T02:21:48.864Z,1004.75
2018-04-02T02:22:48.838Z,1004.77
2018-04-02T02:23:48.818Z,1004.82
2018-04-02T02:24:48.794Z,1004.74
2018-04-02T02:25:48.770Z,1004.75
2018-04-02T02:26:48.747Z,1004.79
2018-04-02T02:27:48.729Z,1004.81
2018-04-02T02:28:48.704Z,1004.76
2018-04-02T02:29:48.684Z,1004.77
2018-04-02T02:30:48.662Z,1004.77
2018-04-02T02:31:48.641Z,1004.74
2018-04-02T02:32:48.613Z,1004.79
2018-04-02T02:33:48.592Z,1004.81
2018-04-02T02:34:48.573Z,1004.81
2018-04-02T02:35:48.545Z,1004.85
2018-04-02T02:36:48.535Z,1004.78
2018-04-02T02:37:48.503Z,1004.82
2018-04-02T02:38:48.478Z,1004.78
2018-04-02T02:39:48.463Z,1004.83
2018-04-02T02:40:48.434Z,1004.84
2018-04-02T02:41:48.412Z,1004.83
2018-04-02T02:42:48.389Z,1004.90
2018-04-02T02:43:48.373Z,1004.87
2018-04-02T02:44:48.344Z,1004.88
2018-04-02T02:45:48.326Z,1004.85
2018-04-02T02:46:48.295Z,1004.89
2018-04-02T02:47:48.324Z,1004.88
2018-04-02T02:48:48.255Z,1004.87
2018-04-02T02:49:48.297Z,1004.92
2018-04-02T02:50:48.208Z,1004.94
2018-04-02T02:51:48.188Z,1004.91
2018-04-02T02:52:48.159Z,1004.91
2018-04-02T02:53:48.191Z,1004.90
2018-04-02T02:54:48.114Z,1004.87
2018-04-02T02:55:48.096Z,1004.96
2018-04-02T02:56:48.093Z,1004.91
2018-04-02T02:57:48.054Z,1004.92
2018-04-02T02:58:48.029Z,1004.95
2018-04-02T02:59:48.058Z,1004.96
2018-04-02T03:00:47.978Z,1004.94
2018-04-02T03:01:48.029Z,1004.96
2018-04-02T03:02:47.933Z,1005.04
2018-04-02T03:03:48.067Z,1004.98
2018-04-02T03:04:47.889Z,1004.99
2018-04-02T03:05:47.866Z,1005.04
2018-04-02T03:06:47.845Z,1005.09
2018-04-02T03:07:47.822Z,1005.06
2018-04-02T03:08:47.800Z,1005.08
2018-04-02T03:09:47.783Z,1005.08
2018-04-02T03:10:47.755Z,1005.13
2018-04-02T03:11:47.883Z,1005.15
2018-04-02T03:12:47.710Z,1005.14
2018-04-02T03:13:47.739Z,1005.13
2018-04-02T03:14:47.661Z,1005.16
2018-04-02T03:15:47.711Z,1005.21
2018-04-02T03:16:47.617Z,1005.19
2018-04-02T03:17:47.704Z,1005.15
2018-04-02T03:18:47.571Z,1005.17
2018-04-02T03:19:47.550Z,1005.16
2018-04-02T03:20:47.527Z,1005.18
2018-04-02T03:21:47.503Z,1005.23
2018-04-02T03:22:47.479Z,1005.21
2018-04-02T03:23:47.537Z,1005.20
2018-04-02T03:24:47.439Z,1005.20
2018-04-02T03:25:47.422Z,1005.21
2018-04-02T03:26:47.395Z,1005.22
2018-04-02T03:27:47.369Z,1005.24
2018-04-02T03:28:47.342Z,1005.29
2018-04-02T03:29:47.416Z,1005.28
2018-04-02T03:30:47.308Z,1005.27
2018-04-02T03:31:47.279Z,1005.29
2018-04-02T03:32:47.256Z,1005.30
2018-04-02T03:33:47.293Z,1005.37
2018-04-02T03:34:47.207Z,1005.34
2018-04-02T03:35:47.183Z,1005.32
2018-04-02T03:36:47.164Z,1005.32
2018-04-02T03:37:47.140Z,1005.33
2018-04-02T03:38:47.114Z,1005.32
2018-04-02T03:39:47.096Z,1005.31
2018-04-02T03:40:47.073Z,1005.27
2018-04-02T03:41:47.048Z,1005.31
2018-04-02T03:42:47.026Z,1005.30
2018-04-02T03:43:47.004Z,1005.31
2018-04-02T03:44:46.983Z,1005.24
2018-04-02T03:45:46.963Z,1005.25
2018-04-02T03:46:46.936Z,1005.28
2018-04-02T03:47:46.914Z,1005.24
2018-04-02T03:48:46.896Z,1005.32
2018-04-02T03:49:46.870Z,1005.32
2018-04-02T03:50:46.843Z,1005.29
2018-04-02T03:51:46.821Z,1005.33
2018-04-02T03:52:46.796Z,1005.34
2018-04-02T03:53:46.781Z,1005.33
2018-04-02T03:54:46.750Z,1005.38
2018-04-02T03:55:46.741Z,1005.36
2018-04-02T03:56:46.711Z,1005.31
2018-04-02T03:57:46.685Z,1005.36
2018-04-02T03:58:46.666Z,1005.39
2018-04-02T03:59:46.640Z,1005.40
2018-04-02T04:00:46.615Z,1005.39
2018-04-02T04:01:46.596Z,1005.40
2018-04-02T04:02:46.574Z,1005.39
2018-04-02T04:03:46.550Z,1005.36
2018-04-02T04:04:46.528Z,1005.41
2018-04-02T04:05:46.504Z,1005.46
2018-04-02T04:06:46.481Z,1005.47
2018-04-02T04:07:46.463Z,1005.50
2018-04-02T04:08:46.434Z,1005.54
2018-04-02T04:09:46.561Z,1005.56
2018-04-02T04:10:46.392Z,1005.55
2018-04-02T04:11:46.370Z,1005.58
2018-04-02T04:12:46.346Z,1005.60
2018-04-02T04:13:46.325Z,1005.55
2018-04-02T04:14:46.299Z,1005.60
2018-04-02T04:15:46.277Z,1005.60
2018-04-02T04:16:46.251Z,1005.62
2018-04-02T04:17:46.233Z,1005.65
2018-04-02T04:18:46.210Z,1005.64
2018-04-02T04:19:46.181Z,1005.64
2018-04-02T04:20:46.159Z,1005.65
2018-04-02T04:21:46.143Z,1005.63
2018-04-02T04:22:46.165Z,1005.66
2018-04-02T04:23:46.092Z,1005.65
2018-04-02T04:24:46.120Z,1005.70
2018-04-02T04:25:46.049Z,1005.71
2018-04-02T04:26:46.023Z,1005.64
2018-04-02T04:27:46.003Z,1005.72
2018-04-02T04:28:45.980Z,1005.71
2018-04-02T04:29:45.957Z,1005.70
2018-04-02T04:30:45.990Z,1005.71
2018-04-02T04:31:45.913Z,1005.78
2018-04-02T04:32:45.893Z,1005.73
2018-04-02T04:33:45.871Z,1005.77
2018-04-02T04:34:45.844Z,1005.78
2018-04-02T04:35:45.821Z,1005.74
2018-04-02T04:36:45.797Z,1005.77
2018-04-02T04:37:45.773Z,1005.78
2018-04-02T04:38:45.750Z,1005.74
2018-04-02T04:39:45.727Z,1005.82
2018-04-02T04:40:45.701Z,1005.80
2018-04-02T04:41:45.683Z,1005.83
2018-04-02T04:42:45.759Z,1005.82
2018-04-02T04:43:45.638Z,1005.83
2018-04-02T04:44:45.662Z,1005.84
2018-04-02T04:45:45.591Z,1005.86
2018-04-02T04:46:45.635Z,1005.81
2018-04-02T04:47:45.545Z,1005.84
2018-04-02T04:48:45.623Z,1005.87
2018-04-02T04:49:45.503Z,1005.85
2018-04-02T04:50:45.481Z,1005.89
2018-04-02T04:51:45.457Z,1005.91
2018-04-02T04:52:45.436Z,1005.95
2018-04-02T04:53:45.413Z,1005.90
2018-04-02T04:54:45.439Z,1005.91
2018-04-02T04:55:45.362Z,1005.91
2018-04-02T04:56:45.343Z,1005.93
2018-04-02T04:57:45.323Z,1005.95
2018-04-02T04:58:45.295Z,1006.00
2018-04-02T04:59:45.272Z,1005.99
2018-04-02T05:00:45.304Z,1005.99
2018-04-02T05:01:45.226Z,1005.98
2018-04-02T05:02:45.204Z,1006.00
2018-04-02T05:03:45.184Z,1006.02
2018-04-02T05:04:45.163Z,1006.06
2018-04-02T05:05:45.149Z,1006.00
2018-04-02T05:06:45.116Z,1006.01
2018-04-02T05:07:45.093Z,1006.03
2018-04-02T05:08:45.076Z,1006.04
2018-04-02T05:09:45.052Z,1006.09
2018-04-02T05:10:45.022Z,1006.06
2018-04-02T05:11:45.003Z,1006.09
2018-04-02T05:12:44.986Z,1006.07
2018-04-02T05:13:44.957Z,1006.13
2018-04-02T05:14:44.932Z,1006.09
2018-04-02T05:15:44.913Z,1006.11
2018-04-02T05:16:44.891Z,1006.11
2018-04-02T05:17:44.863Z,1006.13
2018-04-02T05:18:44.842Z,1006.13
2018-04-02T05:19:44.824Z,1006.09
2018-04-02T05:20:44.798Z,1006.15
2018-04-02T05:21:44.775Z,1006.14
2018-04-02T05:22:44.797Z,1006.16
2018-04-02T05:23:44.728Z,1006.14
2018-04-02T05:24:44.713Z,1006.14
2018-04-02T05:25:44.695Z,1006.11
2018-04-02T05:26:44.665Z,1006.12
2018-04-02T05:27:44.640Z,1006.13
2018-04-02T05:28:44.622Z,1006.13
2018-04-02T05:29:44.596Z,1006.19
2018-04-02T05:30:44.571Z,1006.14
2018-04-02T05:31:44.553Z,1006.17
2018-04-02T05:32:44.530Z,1006.16
2018-04-02T05:33:44.506Z,1006.16
2018-04-02T05:34:44.484Z,1006.19
2018-04-02T05:35:44.462Z,1006.18
2018-04-02T05:36:44.437Z,1006.21
2018-04-02T05:37:44.419Z,1006.21
2018-04-02T05:38:44.393Z,1006.24
2018-04-02T05:39:44.443Z,1006.21
2018-04-02T05:40:44.347Z,1006.23
2018-04-02T05:41:44.324Z,1006.23
2018-04-02T05:42:44.306Z,1006.28
2018-04-02T05:43:44.287Z,1006.30
2018-04-02T05:44:44.260Z,1006.29
2018-04-02T05:45:44.240Z,1006.32
2018-04-02T05:46:44.213Z,1006.32
2018-04-02T05:47:44.191Z,1006.29
2018-04-02T05:48:44.176Z,1006.30
2018-04-02T05:49:44.148Z,1006.30
2018-04-02T05:50:44.119Z,1006.35
2018-04-02T05:51:44.100Z,1006.38
2018-04-02T05:52:44.081Z,1006.38
2018-04-02T05:53:44.063Z,1006.34
2018-04-02T05:54:44.032Z,1006.34
2018-04-02T05:55:44.014Z,1006.32
2018-04-02T05:56:43.991Z,1006.34
2018-04-02T05:57:43.967Z,1006.35
2018-04-02T05:58:43.953Z,1006.37
2018-04-02T05:59:43.945Z,1006.39
2018-04-02T06:00:43.901Z,1006.35
2018-04-02T06:01:43.880Z,1006.37
2018-04-02T06:02:43.858Z,1006.38
2018-04-02T06:03:43.832Z,1006.38
2018-04-02T06:04:43.815Z,1006.38
2018-04-02T06:05:43.794Z,1006.36
2018-04-02T06:06:43.768Z,1006.38
2018-04-02T06:07:43.744Z,1006.41
2018-04-02T06:08:43.721Z,1006.41
2018-04-02T06:09:43.703Z,1006.41
2018-04-02T06:10:43.678Z,1006.40
2018-04-02T06:11:43.657Z,1006.46
2018-04-02T06:12:43.632Z,1006.44
2018-04-02T06:13:43.610Z,1006.47
2018-04-02T06:14:43.593Z,1006.44
2018-04-02T06:15:43.566Z,1006.46
2018-04-02T06:16:43.602Z,1006.44
2018-04-02T06:17:43.523Z,1006.51
2018-04-02T06:18:43.499Z,1006.46
2018-04-02T06:19:43.480Z,1006.49
2018-04-02T06:20:43.457Z,1006.54
2018-04-02T06:21:43.437Z,1006.54
2018-04-02T06:22:43.418Z,1006.52
2018-04-02T06:23:43.394Z,1006.50
2018-04-02T06:24:43.463Z,1006.52
2018-04-02T06:25:43.443Z,1006.49
2018-04-02T06:26:43.321Z,1006.50
2018-04-02T06:27:43.350Z,1006.55
2018-04-02T06:28:43.494Z,1006.54
2018-04-02T06:29:43.253Z,1006.56
2018-04-02T06:30:43.434Z,1006.54
2018-04-02T06:31:43.212Z,1006.52
2018-04-02T06:32:43.185Z,1006.54
2018-04-02T06:33:43.171Z,1006.53
2018-04-02T06:34:43.152Z,1006.58
2018-04-02T06:35:43.121Z,1006.55
2018-04-02T06:36:43.102Z,1006.54
2018-04-02T06:37:43.123Z,1006.60
2018-04-02T06:38:43.059Z,1006.56
2018-04-02T06:39:43.043Z,1006.58
2018-04-02T06:40:43.024Z,1006.60
2018-04-02T06:41:43.140Z,1006.62
2018-04-02T06:42:42.972Z,1006.65
2018-04-02T06:43:43.454Z,1006.64
2018-04-02T06:44:42.932Z,1006.58
2018-04-02T06:45:42.912Z,1006.69
2018-04-02T06:46:42.885Z,1006.70
2018-04-02T06:47:42.917Z,1006.74
2018-04-02T06:48:42.843Z,1006.70
2018-04-02T06:49:42.823Z,1006.70
2018-04-02T06:50:42.803Z,1006.72
2018-04-02T06:51:42.782Z,1006.78
2018-04-02T06:52:42.755Z,1006.80
2018-04-02T06:53:42.734Z,1006.71
2018-04-02T06:54:42.712Z,1006.75
2018-04-02T06:55:42.690Z,1006.77
2018-04-02T06:56:42.667Z,1006.74
2018-04-02T06:57:42.652Z,1006.76
2018-04-02T06:58:42.630Z,1006.74
2018-04-02T06:59:42.607Z,1006.79
2018-04-02T07:00:42.589Z,1006.76
2018-04-02T07:01:42.564Z,1006.79
2018-04-02T07:02:42.539Z,1006.81
2018-04-02T07:03:42.518Z,1006.89
2018-04-02T07:04:42.506Z,1006.87
2018-04-02T07:05:42.476Z,1006.84
2018-04-02T07:06:42.454Z,1006.88
2018-04-02T07:07:42.433Z,1006.88
2018-04-02T07:08:42.410Z,1006.89
2018-04-02T07:09:42.390Z,1006.89
2018-04-02T07:10:42.368Z,1006.90
2018-04-02T07:11:42.352Z,1006.89
2018-04-02T07:12:42.326Z,1006.94
2018-04-02T07:13:42.304Z,1006.99
2018-04-02T07:14:42.283Z,1006.94
2018-04-02T07:15:42.263Z,1006.93
2018-04-02T07:16:42.239Z,1006.99
2018-04-02T07:17:42.223Z,1007.00
2018-04-02T07:18:42.200Z,1006.95
2018-04-02T07:19:42.184Z,1006.96
2018-04-02T07:20:42.159Z,1006.99
2018-04-02T07:21:42.138Z,1007.07
2018-04-02T07:22:42.113Z,1007.07
2018-04-02T07:23:42.258Z,1007.11
2018-04-02T07:24:42.077Z,1007.04
2018-04-02T07:25:42.129Z,1007.02
2018-04-02T07:26:42.034Z,1007.05
2018-04-02T07:27:42.087Z,1007.07
2018-04-02T07:28:41.993Z,1007.03
2018-04-02T07:29:41.976Z,1007.15
2018-04-02T07:30:41.950Z,1007.37
2018-04-02T07:31:41.925Z,1007.12
2018-04-02T07:32:41.906Z,1007.50
2018-04-02T07:33:41.890Z,1007.69
2018-04-02T07:34:41.868Z,1007.69
2018-04-02T07:35:41.843Z,1007.71
2018-04-02T07:36:41.822Z,1007.52
2018-04-02T07:37:41.804Z,1007.72
2018-04-02T07:38:41.784Z,1007.71
2018-04-02T07:39:41.778Z,1007.80
2018-04-02T07:40:41.760Z,1007.78
2018-04-02T07:41:41.728Z,1007.21
2018-04-02T07:42:41.706Z,1007.64
2018-04-02T07:43:41.786Z,1007.69
2018-04-02T07:44:41.676Z,1007.69
2018-04-02T07:45:41.664Z,1007.71
2018-04-02T07:46:41.632Z,1007.15
2018-04-02T07:47:41.623Z,1007.60
2018-04-02T07:48:41.600Z,1007.15
2018-04-02T07:49:41.580Z,1007.88
2018-04-02T07:50:41.579Z,1007.91
2018-04-02T07:51:41.554Z,1007.95
2018-04-02T07:52:41.537Z,1007.96
2018-04-02T07:53:41.526Z,1008.03
2018-04-02T07:54:41.503Z,1008.00
2018-04-02T07:55:41.488Z,1008.05
2018-04-02T07:56:41.472Z,1007.55
2018-04-02T07:57:41.457Z,1007.98
2018-04-02T07:58:41.442Z,1008.06
2018-04-02T07:59:41.432Z,1008.03
2018-04-02T08:00:41.418Z,1008.11
2018-04-02T08:01:41.447Z,1008.09
2018-04-02T08:02:41.396Z,1008.10
2018-04-02T08:03:41.512Z,1008.08
2018-04-02T08:04:41.360Z,1007.53
2018-04-02T08:05:41.353Z,1008.09
2018-04-02T08:06:41.337Z,1008.11
2018-04-02T08:07:41.473Z,1008.24
2018-04-02T08:08:41.390Z,1008.27
2018-04-02T08:09:41.306Z,1008.02
2018-04-02T08:10:41.294Z,1008.25
2018-04-02T08:11:41.282Z,1008.22
2018-04-02T08:12:41.273Z,1008.13
2018-04-02T08:13:41.267Z,1008.26
2018-04-02T08:14:41.258Z,1008.27
2018-04-02T08:15:41.245Z,1008.28
2018-04-02T08:16:41.242Z,1008.28
2018-04-02T08:17:41.236Z,1008.33
2018-04-02T08:18:41.223Z,1008.37
2018-04-02T08:19:41.212Z,1008.34
2018-04-02T08:20:41.204Z,1008.39
2018-04-02T08:21:41.201Z,1008.35
2018-04-02T08:22:41.191Z,1008.32
2018-04-02T08:23:41.188Z,1008.39
2018-04-02T08:24:41.181Z,1008.37
2018-04-02T08:25:41.174Z,1008.44
2018-04-02T08:26:41.162Z,1008.48
2018-04-02T08:27:41.159Z,1008.46
2018-04-02T08:28:41.154Z,1008.38
2018-04-02T08:29:41.159Z,1008.52
2018-04-02T08:30:41.144Z,1008.43
2018-04-02T08:31:41.145Z,1008.54
2018-04-02T08:32:41.158Z,1008.56
2018-04-02T08:33:41.131Z,1008.54
2018-04-02T08:34:41.124Z,1008.57
2018-04-02T08:35:41.118Z,1008.58
2018-04-02T08:36:41.121Z,1008.55
2018-04-02T08:37:41.114Z,1007.93
2018-04-02T08:38:41.117Z,1008.66
2018-04-02T08:39:41.107Z,1008.75
2018-04-02T08:40:41.104Z,1008.75
2018-04-02T08:41:41.099Z,1008.73
2018-04-02T08:42:41.099Z,1008.76
2018-04-02T08:43:41.091Z,1008.41
2018-04-02T08:44:41.095Z,1008.80
2018-04-02T08:45:41.091Z,1008.72
2018-04-02T08:46:41.084Z,1008.76
2018-04-02T08:47:41.079Z,1008.60
2018-04-02T08:48:41.076Z,1008.80
2018-04-02T08:49:41.083Z,1008.80
2018-04-02T08:50:41.069Z,1007.91
2018-04-02T08:51:41.073Z,1008.89
2018-04-02T08:52:41.068Z,1008.77
2018-04-02T08:53:41.070Z,1008.86
2018-04-02T08:54:41.070Z,1008.71
2018-04-02T08:55:41.061Z,1008.67
2018-04-02T08:56:41.055Z,1008.87
2018-04-02T08:57:41.057Z,1008.75
2018-04-02T08:58:41.055Z,1008.53
2018-04-02T08:59:41.055Z,1008.50
2018-04-02T09:00:41.065Z,1008.82
2018-04-02T09:01:41.047Z,1008.86
2018-04-02T09:02:41.045Z,1008.78
2018-04-02T09:03:41.046Z,1008.46
2018-04-02T09:04:41.039Z,1008.80
2018-04-02T09:05:41.039Z,1008.81
2018-04-02T09:06:41.038Z,1008.86
2018-04-02T09:07:41.040Z,1008.89
2018-04-02T09:08:41.045Z,1008.58
2018-04-02T09:09:41.050Z,1008.75
2018-04-02T09:10:41.033Z,1008.81
2018-04-02T09:11:41.032Z,1008.78
2018-04-02T09:12:41.027Z,1008.77
2018-04-02T09:13:41.036Z,1008.77
2018-04-02T09:14:41.024Z,1007.97
2018-04-02T09:15:41.025Z,1008.81
2018-04-02T09:16:41.053Z,1008.85
2018-04-02T09:17:41.098Z,1008.18
2018-04-02T09:18:41.079Z,1007.98
2018-04-02T09:19:41.029Z,1008.82
2018-04-02T09:20:41.017Z,1008.79
2018-04-02T09:21:41.018Z,1008.81
2018-04-02T09:22:41.015Z,1008.74
2018-04-02T09:23:41.014Z,1008.69
2018-04-02T09:24:41.015Z,1008.75
2018-04-02T09:25:41.011Z,1008.72
2018-04-02T09:26:41.011Z,1008.76
2018-04-02T09:27:41.012Z,1008.33
2018-04-02T09:28:41.017Z,1007.86
2018-04-02T09:29:41.013Z,1008.02
2018-04-02T09:30:41.003Z,1008.73
2018-04-02T09:31:41.004Z,1007.84
2018-04-02T09:32:41.004Z,1007.83
2018-04-02T09:33:41.012Z,1007.81
2018-04-02T09:34:40.996Z,1007.77
2018-04-02T09:35:40.997Z,1007.81
2018-04-02T09:36:40.994Z,1008.51
2018-04-02T09:37:40.993Z,1008.53
2018-04-02T09:38:40.990Z,1008.57
2018-04-02T09:39:40.993Z,1008.55
2018-04-02T09:40:40.993Z,1008.58
2018-04-02T09:41:40.983Z,1008.55
2018-04-02T09:42:41.031Z,1008.51
2018-04-02T09:43:40.982Z,1008.51
2018-04-02T09:44:40.975Z,1007.73
2018-04-02T09:45:40.975Z,1007.76
2018-04-02T09:46:40.968Z,1008.43
2018-04-02T09:47:40.971Z,1008.51
2018-04-02T09:48:40.963Z,1008.45
2018-04-02T09:49:40.959Z,1008.39
2018-04-02T09:50:40.956Z,1008.33
2018-04-02T09:51:40.953Z,1008.36
2018-04-02T09:52:40.950Z,1008.38
2018-04-02T09:53:40.953Z,1008.38
2018-04-02T09:54:40.947Z,1007.58
2018-04-02T09:55:40.945Z,1007.96
2018-04-02T09:56:40.945Z,1008.35
2018-04-02T09:57:40.942Z,1008.23
2018-04-02T09:58:40.942Z,1008.30
2018-04-02T09:59:40.948Z,1007.80
2018-04-02T10:00:40.939Z,1008.31
2018-04-02T10:01:40.935Z,1008.30
2018-04-02T10:02:40.932Z,1008.28
2018-04-02T10:03:40.945Z,1008.37
2018-04-02T10:04:41.120Z,1008.33
2018-04-02T10:05:40.932Z,1008.34
2018-04-02T10:06:40.932Z,1008.27
2018-04-02T10:07:40.932Z,1008.27
2018-04-02T10:08:40.932Z,1008.28
2018-04-02T10:09:40.932Z,1008.27
2018-04-02T10:10:40.933Z,1008.27
2018-04-02T10:11:40.929Z,1008.37
2018-04-02T10:12:40.936Z,1008.31
2018-04-02T10:13:40.936Z,1008.32
2018-04-02T10:14:40.933Z,1008.29
2018-04-02T10:15:40.935Z,1008.24
2018-04-02T10:16:40.935Z,1008.24
2018-04-02T10:17:40.935Z,1008.18
2018-04-02T10:18:40.935Z,1008.22
2018-04-02T10:19:40.945Z,1008.18
2018-04-02T10:20:41.006Z,1008.22
2018-04-02T10:21:40.945Z,1008.22
2018-04-02T10:22:40.942Z,1008.21
2018-04-02T10:23:40.943Z,1008.22
2018-04-02T10:24:40.949Z,1008.17
2018-04-02T10:25:40.947Z,1008.17
2018-04-02T10:26:40.951Z,1008.20
2018-04-02T10:27:40.957Z,1008.17
2018-04-02T10:28:40.952Z,1008.15
2018-04-02T10:29:41.006Z,1008.18
2018-04-02T10:30:40.966Z,1008.18
2018-04-02T10:31:40.960Z,1008.20
2018-04-02T10:32:40.968Z,1008.16
2018-04-02T10:33:40.961Z,1008.17
2018-04-02T10:34:40.964Z,1008.11
2018-04-02T10:35:40.965Z,1008.08
2018-04-02T10:36:40.971Z,1008.06
2018-04-02T10:37:40.971Z,1008.05
2018-04-02T10:38:40.974Z,1007.93
2018-04-02T10:39:40.978Z,1008.07
2018-04-02T10:40:40.986Z,1008.07
2018-04-02T10:41:40.986Z,1008.03
2018-04-02T10:42:40.987Z,1007.99
2018-04-02T10:43:40.987Z,1007.98
2018-04-02T10:44:40.993Z,1008.04
2018-04-02T10:45:40.996Z,1008.03
2018-04-02T10:46:40.995Z,1007.96
2018-04-02T10:47:41.007Z,1007.99
2018-04-02T10:48:41.032Z,1007.97
2018-04-02T10:49:41.029Z,1007.90
2018-04-02T10:50:41.009Z,1007.86
2018-04-02T10:51:41.007Z,1007.85
2018-04-02T10:52:41.019Z,1007.77
2018-04-02T10:53:41.019Z,1007.80
2018-04-02T10:54:41.014Z,1007.81
2018-04-02T10:55:41.024Z,1007.78
2018-04-02T10:56:41.019Z,1007.77
2018-04-02T10:57:41.023Z,1007.77
2018-04-02T10:58:41.029Z,1007.74
2018-04-02T10:59:41.103Z,1007.74
2018-04-02T11:00:41.033Z,1007.78
2018-04-02T11:01:41.040Z,1007.73
2018-04-02T11:02:41.041Z,1007.74
2018-04-02T11:03:41.040Z,1007.77
2018-04-02T11:04:41.047Z,1007.75
2018-04-02T11:05:41.087Z,1007.78
2018-04-02T11:06:41.051Z,1007.36
2018-04-02T11:07:41.055Z,1007.78
2018-04-02T11:08:41.059Z,1007.70
2018-04-02T11:09:41.058Z,1007.55
2018-04-02T11:10:41.065Z,1007.73
2018-04-02T11:11:41.067Z,1007.70
2018-04-02T11:12:41.073Z,1007.60
2018-04-02T11:13:41.077Z,1007.67
2018-04-02T11:14:41.075Z,1007.37
2018-04-02T11:15:41.080Z,1007.35
2018-04-02T11:16:41.080Z,1007.20
2018-04-02T11:17:41.092Z,1007.25
2018-04-02T11:18:41.098Z,1007.62
2018-04-02T11:19:41.086Z,1007.66
2018-04-02T11:20:41.094Z,1007.38
2018-04-02T11:21:41.092Z,1007.55
2018-04-02T11:22:41.094Z,1007.48
2018-04-02T11:23:41.144Z,1007.49
2018-04-02T11:24:41.105Z,1007.20
2018-04-02T11:25:41.102Z,1007.57
2018-04-02T11:26:41.108Z,1007.58
2018-04-02T11:27:41.109Z,1007.36
2018-04-02T11:28:41.109Z,1007.14
2018-04-02T11:29:41.111Z,1007.59
2018-04-02T11:30:41.115Z,1007.44
2018-04-02T11:31:41.114Z,1007.39
2018-04-02T11:32:41.120Z,1007.29
2018-04-02T11:33:41.122Z,1007.48
2018-04-02T11:34:41.119Z,1007.45
2018-04-02T11:35:41.128Z,1007.36
2018-04-02T11:36:41.127Z,1007.26
2018-04-02T11:37:41.130Z,1007.45
2018-04-02T11:38:41.128Z,1007.41
2018-04-02T11:39:41.140Z,1007.45
2018-04-02T11:40:41.140Z,1007.43
2018-04-02T11:41:41.137Z,1007.44
2018-04-02T11:42:41.137Z,1007.43
2018-04-02T11:43:41.148Z,1007.34
2018-04-02T11:44:41.146Z,1007.38
2018-04-02T11:45:41.147Z,1007.44
2018-04-02T11:46:41.148Z,1007.35
2018-04-02T11:47:41.153Z,1007.31
2018-04-02T11:48:41.154Z,1007.32
2018-04-02T11:49:41.204Z,1007.40
2018-04-02T11:50:41.159Z,1007.13
2018-04-02T11:51:41.168Z,1007.45
2018-04-02T11:52:41.162Z,1007.32
2018-04-02T11:53:41.170Z,1007.36
2018-04-02T11:54:41.172Z,1007.31
2018-04-02T11:55:41.172Z,1007.33
2018-04-02T11:56:41.174Z,1007.37
2018-04-02T11:57:41.195Z,1007.35
2018-04-02T11:58:41.182Z,1007.45
2018-04-02T11:59:41.181Z,1007.36
2018-04-02T12:00:41.184Z,1007.44
2018-04-02T12:01:41.193Z,1007.26
2018-04-02T12:02:41.192Z,1006.97
2018-04-02T12:03:41.194Z,1007.02
2018-04-02T12:04:41.204Z,1007.37
2018-04-02T12:05:41.199Z,1007.32